sensor_id;sensor_type;location;lat;lon;timestamp;P1;durP1;ratioP1;P2;durP2;ratioP2
14789;SDS011;7486;51.010;10.366;2023-08-21T00:01:08;8.38;;;7.55;;
14789;SDS011;7486;51.010;10.366;2023-08-21T00:03:54;7.72;;;7.10;;
14789;SDS011;7486;51.010;10.366;2023-08-21T00:06:39;8.05;;;6.65;;
14789;SDS011;7486;51.010;10.366;2023-08-21T00:09:24;8.13;;;7.30;;
14789;SDS011;7486;51.010;10.366;2023-08-21T00:12:10;9.43;;;7.65;;
14789;SDS011;7486;51.010;10.366;2023-08-21T00:14:56;8.73;;;7.82;;
14789;SDS011;7486;51.010;10.366;2023-08-21T00:17:42;7.68;;;7.07;;
14789;SDS011;7486;51.010;10.366;2023-08-21T00:20:27;9.18;;;7.72;;
14789;SDS011;7486;51.010;10.366;2023-08-21T00:23:13;8.32;;;7.40;;
14789;SDS011;7486;51.010;10.366;2023-08-21T00:25:58;8.00;;;7.20;;
14789;SDS011;7486;51.010;10.366;2023-08-21T00:28:44;7.88;;;7.07;;
14789;SDS011;7486;51.010;10.366;2023-08-21T00:31:29;8.48;;;7.68;;
14789;SDS011;7486;51.010;10.366;2023-08-21T00:34:15;10.65;;;7.55;;
14789;SDS011;7486;51.010;10.366;2023-08-21T00:37:00;8.07;;;7.38;;
14789;SDS011;7486;51.010;10.366;2023-08-21T00:39:46;8.30;;;7.50;;
14789;SDS011;7486;51.010;10.366;2023-08-21T00:42:31;8.68;;;7.70;;
14789;SDS011;7486;51.010;10.366;2023-08-21T00:45:17;8.80;;;7.57;;
14789;SDS011;7486;51.010;10.366;2023-08-21T00:48:04;8.20;;;7.50;;
14789;SDS011;7486;51.010;10.366;2023-08-21T00:50:49;8.95;;;8.02;;
14789;SDS011;7486;51.010;10.366;2023-08-21T00:53:35;9.55;;;7.82;;
14789;SDS011;7486;51.010;10.366;2023-08-21T00:56:20;7.55;;;6.85;;
14789;SDS011;7486;51.010;10.366;2023-08-21T00:59:06;7.70;;;7.00;;
14789;SDS011;7486;51.010;10.366;2023-08-21T01:01:51;7.38;;;6.68;;
14789;SDS011;7486;51.010;10.366;2023-08-21T01:04:38;7.32;;;6.50;;
14789;SDS011;7486;51.010;10.366;2023-08-21T01:07:24;8.40;;;6.65;;
14789;SDS011;7486;51.010;10.366;2023-08-21T01:10:11;8.15;;;7.30;;
14789;SDS011;7486;51.010;10.366;2023-08-21T01:13:16;8.27;;;7.20;;
14789;SDS011;7486;51.010;10.366;2023-08-21T01:16:11;7.80;;;6.97;;
14789;SDS011;7486;51.010;10.366;2023-08-21T01:19:00;7.55;;;6.78;;
14789;SDS011;7486;51.010;10.366;2023-08-21T01:21:46;8.15;;;7.18;;
14789;SDS011;7486;51.010;10.366;2023-08-21T01:24:31;7.63;;;7.03;;
14789;SDS011;7486;51.010;10.366;2023-08-21T01:27:17;7.60;;;6.88;;
14789;SDS011;7486;51.010;10.366;2023-08-21T01:30:03;7.40;;;6.78;;
14789;SDS011;7486;51.010;10.366;2023-08-21T01:35:45;8.05;;;7.05;;
14789;SDS011;7486;51.010;10.366;2023-08-21T01:38:31;7.63;;;6.93;;
14789;SDS011;7486;51.010;10.366;2023-08-21T01:41:17;7.00;;;6.40;;
14789;SDS011;7486;51.010;10.366;2023-08-21T01:44:03;7.22;;;6.70;;
14789;SDS011;7486;51.010;10.366;2023-08-21T01:46:51;8.38;;;6.97;;
14789;SDS011;7486;51.010;10.366;2023-08-21T01:49:36;8.38;;;7.68;;
14789;SDS011;7486;51.010;10.366;2023-08-21T01:52:22;8.40;;;7.65;;
14789;SDS011;7486;51.010;10.366;2023-08-21T01:55:07;7.57;;;6.93;;
14789;SDS011;7486;51.010;10.366;2023-08-21T01:57:52;7.85;;;6.93;;
14789;SDS011;7486;51.010;10.366;2023-08-21T02:00:37;8.48;;;7.68;;
14789;SDS011;7486;51.010;10.366;2023-08-21T02:03:24;9.57;;;8.30;;
14789;SDS011;7486;51.010;10.366;2023-08-21T02:06:10;8.90;;;8.00;;
14789;SDS011;7486;51.010;10.366;2023-08-21T02:08:56;8.30;;;7.60;;
14789;SDS011;7486;51.010;10.366;2023-08-21T02:11:42;8.38;;;7.55;;
14789;SDS011;7486;51.010;10.366;2023-08-21T02:14:28;9.52;;;8.32;;
14789;SDS011;7486;51.010;10.366;2023-08-21T02:17:13;9.18;;;8.27;;
14789;SDS011;7486;51.010;10.366;2023-08-21T02:19:59;9.02;;;8.23;;
14789;SDS011;7486;51.010;10.366;2023-08-21T02:22:44;8.27;;;7.53;;
14789;SDS011;7486;51.010;10.366;2023-08-21T02:25:31;8.65;;;7.85;;
14789;SDS011;7486;51.010;10.366;2023-08-21T02:28:17;8.32;;;7.57;;
14789;SDS011;7486;51.010;10.366;2023-08-21T02:31:08;9.10;;;7.75;;
14789;SDS011;7486;51.010;10.366;2023-08-21T02:33:56;9.63;;;7.85;;
14789;SDS011;7486;51.010;10.366;2023-08-21T02:36:42;8.88;;;7.93;;
14789;SDS011;7486;51.010;10.366;2023-08-21T02:39:28;8.68;;;7.88;;
14789;SDS011;7486;51.010;10.366;2023-08-21T02:42:13;9.15;;;8.35;;
14789;SDS011;7486;51.010;10.366;2023-08-21T02:44:59;9.45;;;8.57;;
14789;SDS011;7486;51.010;10.366;2023-08-21T02:47:45;8.90;;;8.20;;
14789;SDS011;7486;51.010;10.366;2023-08-21T02:50:30;9.43;;;8.60;;
14789;SDS011;7486;51.010;10.366;2023-08-21T02:53:15;9.85;;;8.63;;
14789;SDS011;7486;51.010;10.366;2023-08-21T02:56:01;10.05;;;9.05;;
14789;SDS011;7486;51.010;10.366;2023-08-21T02:58:47;9.05;;;8.25;;
14789;SDS011;7486;51.010;10.366;2023-08-21T03:01:32;8.70;;;7.90;;
14789;SDS011;7486;51.010;10.366;2023-08-21T03:04:17;8.77;;;7.80;;
14789;SDS011;7486;51.010;10.366;2023-08-21T03:07:02;9.35;;;7.53;;
14789;SDS011;7486;51.010;10.366;2023-08-21T03:09:48;8.55;;;7.75;;
14789;SDS011;7486;51.010;10.366;2023-08-21T03:12:34;9.25;;;8.27;;
14789;SDS011;7486;51.010;10.366;2023-08-21T03:15:19;9.02;;;8.18;;
14789;SDS011;7486;51.010;10.366;2023-08-21T03:18:05;9.48;;;8.60;;
14789;SDS011;7486;51.010;10.366;2023-08-21T03:20:50;8.93;;;8.05;;
14789;SDS011;7486;51.010;10.366;2023-08-21T03:23:35;8.93;;;8.02;;
14789;SDS011;7486;51.010;10.366;2023-08-21T03:26:22;8.80;;;7.97;;
14789;SDS011;7486;51.010;10.366;2023-08-21T03:29:08;9.20;;;7.57;;
14789;SDS011;7486;51.010;10.366;2023-08-21T03:31:54;8.75;;;7.80;;
14789;SDS011;7486;51.010;10.366;2023-08-21T03:34:39;9.02;;;8.13;;
14789;SDS011;7486;51.010;10.366;2023-08-21T03:37:25;8.57;;;7.78;;
14789;SDS011;7486;51.010;10.366;2023-08-21T03:40:10;9.88;;;8.07;;
14789;SDS011;7486;51.010;10.366;2023-08-21T03:42:56;8.38;;;7.57;;
14789;SDS011;7486;51.010;10.366;2023-08-21T03:45:41;8.45;;;7.65;;
14789;SDS011;7486;51.010;10.366;2023-08-21T03:48:27;8.50;;;7.80;;
14789;SDS011;7486;51.010;10.366;2023-08-21T03:51:13;8.48;;;7.78;;
14789;SDS011;7486;51.010;10.366;2023-08-21T03:53:58;8.07;;;7.32;;
14789;SDS011;7486;51.010;10.366;2023-08-21T03:56:44;8.60;;;7.80;;
14789;SDS011;7486;51.010;10.366;2023-08-21T03:59:29;8.13;;;7.32;;
14789;SDS011;7486;51.010;10.366;2023-08-21T04:02:15;8.48;;;7.68;;
14789;SDS011;7486;51.010;10.366;2023-08-21T04:05:00;7.82;;;7.13;;
14789;SDS011;7486;51.010;10.366;2023-08-21T04:07:45;8.20;;;7.32;;
14789;SDS011;7486;51.010;10.366;2023-08-21T04:10:32;9.45;;;7.70;;
14789;SDS011;7486;51.010;10.366;2023-08-21T04:13:17;8.35;;;7.55;;
14789;SDS011;7486;51.010;10.366;2023-08-21T04:16:02;7.85;;;7.07;;
14789;SDS011;7486;51.010;10.366;2023-08-21T04:18:48;8.25;;;7.45;;
14789;SDS011;7486;51.010;10.366;2023-08-21T04:21:34;8.23;;;7.40;;
14789;SDS011;7486;51.010;10.366;2023-08-21T04:24:19;8.18;;;7.40;;
14789;SDS011;7486;51.010;10.366;2023-08-21T04:27:04;6.90;;;6.30;;
14789;SDS011;7486;51.010;10.366;2023-08-21T04:29:50;7.43;;;6.82;;
14789;SDS011;7486;51.010;10.366;2023-08-21T04:32:35;7.75;;;6.28;;
14789;SDS011;7486;51.010;10.366;2023-08-21T04:35:22;7.30;;;6.60;;
14789;SDS011;7486;51.010;10.366;2023-08-21T04:38:07;7.10;;;6.40;;
14789;SDS011;7486;51.010;10.366;2023-08-21T04:40:54;7.57;;;6.63;;
14789;SDS011;7486;51.010;10.366;2023-08-21T04:43:40;7.55;;;6.85;;
14789;SDS011;7486;51.010;10.366;2023-08-21T04:46:26;9.10;;;8.15;;
14789;SDS011;7486;51.010;10.366;2023-08-21T04:49:13;9.65;;;8.65;;
14789;SDS011;7486;51.010;10.366;2023-08-21T04:51:58;9.43;;;8.40;;
14789;SDS011;7486;51.010;10.366;2023-08-21T04:54:44;9.63;;;8.63;;
14789;SDS011;7486;51.010;10.366;2023-08-21T04:57:32;9.15;;;8.32;;
14789;SDS011;7486;51.010;10.366;2023-08-21T05:00:18;10.23;;;9.07;;
14789;SDS011;7486;51.010;10.366;2023-08-21T05:03:03;10.88;;;9.00;;
14789;SDS011;7486;51.010;10.366;2023-08-21T05:05:53;9.18;;;8.27;;
14789;SDS011;7486;51.010;10.366;2023-08-21T05:08:39;9.68;;;8.23;;
14789;SDS011;7486;51.010;10.366;2023-08-21T05:11:27;9.40;;;8.50;;
14789;SDS011;7486;51.010;10.366;2023-08-21T05:14:12;11.10;;;9.27;;
14789;SDS011;7486;51.010;10.366;2023-08-21T05:16:57;10.35;;;8.73;;
14789;SDS011;7486;51.010;10.366;2023-08-21T05:19:43;9.25;;;8.38;;
14789;SDS011;7486;51.010;10.366;2023-08-21T05:22:29;8.95;;;7.70;;
14789;SDS011;7486;51.010;10.366;2023-08-21T05:25:15;8.05;;;7.25;;
14789;SDS011;7486;51.010;10.366;2023-08-21T05:28:01;8.25;;;7.45;;
14789;SDS011;7486;51.010;10.366;2023-08-21T05:30:47;8.38;;;7.57;;
14789;SDS011;7486;51.010;10.366;2023-08-21T05:33:33;8.18;;;7.38;;
14789;SDS011;7486;51.010;10.366;2023-08-21T05:36:18;7.57;;;6.88;;
14789;SDS011;7486;51.010;10.366;2023-08-21T05:39:04;7.85;;;7.07;;
14789;SDS011;7486;51.010;10.366;2023-08-21T05:41:51;9.57;;;8.68;;
14789;SDS011;7486;51.010;10.366;2023-08-21T05:44:37;10.25;;;9.35;;
14789;SDS011;7486;51.010;10.366;2023-08-21T05:47:23;10.43;;;9.43;;
14789;SDS011;7486;51.010;10.366;2023-08-21T05:50:09;9.38;;;8.57;;
14789;SDS011;7486;51.010;10.366;2023-08-21T05:52:55;10.07;;;9.10;;
14789;SDS011;7486;51.010;10.366;2023-08-21T05:55:40;10.55;;;8.82;;
14789;SDS011;7486;51.010;10.366;2023-08-21T05:58:27;9.20;;;8.40;;
14789;SDS011;7486;51.010;10.366;2023-08-21T06:01:13;9.38;;;8.55;;
14789;SDS011;7486;51.010;10.366;2023-08-21T06:03:59;9.35;;;8.45;;
14789;SDS011;7486;51.010;10.366;2023-08-21T06:07:00;9.55;;;8.60;;
14789;SDS011;7486;51.010;10.366;2023-08-21T06:09:46;9.95;;;8.55;;
14789;SDS011;7486;51.010;10.366;2023-08-21T06:12:31;10.05;;;8.93;;
14789;SDS011;7486;51.010;10.366;2023-08-21T06:15:16;10.40;;;9.15;;
14789;SDS011;7486;51.010;10.366;2023-08-21T06:18:01;11.32;;;8.15;;
14789;SDS011;7486;51.010;10.366;2023-08-21T06:20:48;8.63;;;7.45;;
14789;SDS011;7486;51.010;10.366;2023-08-21T06:23:33;9.90;;;7.38;;
14789;SDS011;7486;51.010;10.366;2023-08-21T06:26:21;8.93;;;7.32;;
14789;SDS011;7486;51.010;10.366;2023-08-21T06:29:06;9.88;;;7.25;;
14789;SDS011;7486;51.010;10.366;2023-08-21T06:31:52;7.70;;;7.00;;
14789;SDS011;7486;51.010;10.366;2023-08-21T06:34:38;8.27;;;7.28;;
14789;SDS011;7486;51.010;10.366;2023-08-21T06:37:23;7.72;;;6.93;;
14789;SDS011;7486;51.010;10.366;2023-08-21T06:40:12;8.35;;;7.10;;
14789;SDS011;7486;51.010;10.366;2023-08-21T06:42:57;8.43;;;7.15;;
14789;SDS011;7486;51.010;10.366;2023-08-21T06:45:47;8.40;;;6.60;;
14789;SDS011;7486;51.010;10.366;2023-08-21T06:48:32;7.97;;;7.15;;
14789;SDS011;7486;51.010;10.366;2023-08-21T06:51:19;8.52;;;7.10;;
14789;SDS011;7486;51.010;10.366;2023-08-21T06:54:04;7.00;;;6.38;;
14789;SDS011;7486;51.010;10.366;2023-08-21T06:56:49;7.15;;;6.20;;
14789;SDS011;7486;51.010;10.366;2023-08-21T06:59:35;7.20;;;6.50;;
14789;SDS011;7486;51.010;10.366;2023-08-21T07:02:20;7.13;;;6.43;;
14789;SDS011;7486;51.010;10.366;2023-08-21T07:05:06;7.07;;;6.18;;
14789;SDS011;7486;51.010;10.366;2023-08-21T07:07:54;7.05;;;6.45;;
14789;SDS011;7486;51.010;10.366;2023-08-21T07:10:39;8.85;;;6.25;;
14789;SDS011;7486;51.010;10.366;2023-08-21T07:13:24;7.43;;;6.72;;
14789;SDS011;7486;51.010;10.366;2023-08-21T07:16:10;6.95;;;6.35;;
14789;SDS011;7486;51.010;10.366;2023-08-21T07:18:55;6.82;;;6.15;;
14789;SDS011;7486;51.010;10.366;2023-08-21T07:21:41;9.52;;;6.22;;
14789;SDS011;7486;51.010;10.366;2023-08-21T07:24:26;6.70;;;6.07;;
14789;SDS011;7486;51.010;10.366;2023-08-21T07:27:12;7.18;;;6.25;;
14789;SDS011;7486;51.010;10.366;2023-08-21T07:29:57;8.65;;;6.03;;
14789;SDS011;7486;51.010;10.366;2023-08-21T07:32:43;6.57;;;5.80;;
14789;SDS011;7486;51.010;10.366;2023-08-21T07:35:28;7.45;;;6.07;;
14789;SDS011;7486;51.010;10.366;2023-08-21T07:38:14;9.48;;;5.43;;
14789;SDS011;7486;51.010;10.366;2023-08-21T07:41:06;6.45;;;5.70;;
14789;SDS011;7486;51.010;10.366;2023-08-21T07:43:53;6.68;;;6.00;;
14789;SDS011;7486;51.010;10.366;2023-08-21T07:46:39;6.53;;;5.55;;
14789;SDS011;7486;51.010;10.366;2023-08-21T07:49:24;5.97;;;5.22;;
14789;SDS011;7486;51.010;10.366;2023-08-21T07:52:10;6.38;;;5.40;;
14789;SDS011;7486;51.010;10.366;2023-08-21T07:54:55;5.35;;;4.72;;
14789;SDS011;7486;51.010;10.366;2023-08-21T07:57:40;7.10;;;5.05;;
14789;SDS011;7486;51.010;10.366;2023-08-21T08:00:26;5.63;;;4.78;;
14789;SDS011;7486;51.010;10.366;2023-08-21T08:03:11;5.70;;;5.18;;
14789;SDS011;7486;51.010;10.366;2023-08-21T08:05:57;6.28;;;5.00;;
14789;SDS011;7486;51.010;10.366;2023-08-21T08:08:43;7.22;;;5.15;;
14789;SDS011;7486;51.010;10.366;2023-08-21T08:11:28;7.05;;;5.50;;
14789;SDS011;7486;51.010;10.366;2023-08-21T08:14:14;8.32;;;6.55;;
14789;SDS011;7486;51.010;10.366;2023-08-21T08:17:00;7.88;;;5.45;;
14789;SDS011;7486;51.010;10.366;2023-08-21T08:19:45;6.90;;;5.57;;
14789;SDS011;7486;51.010;10.366;2023-08-21T08:22:31;6.38;;;5.70;;
14789;SDS011;7486;51.010;10.366;2023-08-21T08:25:15;7.68;;;6.25;;
14789;SDS011;7486;51.010;10.366;2023-08-21T08:28:01;9.45;;;7.82;;
14789;SDS011;7486;51.010;10.366;2023-08-21T08:30:47;10.15;;;8.60;;
14789;SDS011;7486;51.010;10.366;2023-08-21T08:33:33;9.60;;;8.70;;
14789;SDS011;7486;51.010;10.366;2023-08-21T08:36:18;11.93;;;10.73;;
14789;SDS011;7486;51.010;10.366;2023-08-21T08:39:05;11.95;;;9.48;;
14789;SDS011;7486;51.010;10.366;2023-08-21T08:41:55;9.45;;;8.38;;
14789;SDS011;7486;51.010;10.366;2023-08-21T08:44:43;10.00;;;8.98;;
14789;SDS011;7486;51.010;10.366;2023-08-21T08:47:29;10.10;;;9.18;;
14789;SDS011;7486;51.010;10.366;2023-08-21T08:50:17;9.60;;;8.70;;
14789;SDS011;7486;51.010;10.366;2023-08-21T08:53:03;12.93;;;9.55;;
14789;SDS011;7486;51.010;10.366;2023-08-21T08:56:01;9.30;;;8.43;;
14789;SDS011;7486;51.010;10.366;2023-08-21T08:58:46;8.85;;;8.05;;
14789;SDS011;7486;51.010;10.366;2023-08-21T09:01:32;10.48;;;9.38;;
14789;SDS011;7486;51.010;10.366;2023-08-21T09:04:18;11.80;;;8.93;;
14789;SDS011;7486;51.010;10.366;2023-08-21T09:07:09;10.50;;;9.35;;
14789;SDS011;7486;51.010;10.366;2023-08-21T09:09:55;11.82;;;9.45;;
14789;SDS011;7486;51.010;10.366;2023-08-21T09:12:44;10.95;;;9.95;;
14789;SDS011;7486;51.010;10.366;2023-08-21T09:15:30;11.05;;;9.45;;
14789;SDS011;7486;51.010;10.366;2023-08-21T09:18:25;9.98;;;8.98;;
14789;SDS011;7486;51.010;10.366;2023-08-21T09:21:11;12.43;;;10.43;;
14789;SDS011;7486;51.010;10.366;2023-08-21T09:23:57;11.20;;;9.77;;
14789;SDS011;7486;51.010;10.366;2023-08-21T09:26:44;11.00;;;10.00;;
14789;SDS011;7486;51.010;10.366;2023-08-21T09:29:39;10.57;;;9.45;;
14789;SDS011;7486;51.010;10.366;2023-08-21T09:32:25;10.55;;;9.55;;
14789;SDS011;7486;51.010;10.366;2023-08-21T09:35:13;15.48;;;9.35;;
14789;SDS011;7486;51.010;10.366;2023-08-21T09:37:59;10.55;;;9.55;;
14789;SDS011;7486;51.010;10.366;2023-08-21T09:40:54;9.82;;;8.93;;
14789;SDS011;7486;51.010;10.366;2023-08-21T09:43:41;9.50;;;8.52;;
14789;SDS011;7486;51.010;10.366;2023-08-21T09:46:27;12.02;;;9.32;;
14789;SDS011;7486;51.010;10.366;2023-08-21T09:49:12;10.18;;;8.80;;
14789;SDS011;7486;51.010;10.366;2023-08-21T09:51:59;9.52;;;8.52;;
14789;SDS011;7486;51.010;10.366;2023-08-21T09:54:44;8.90;;;8.05;;
14789;SDS011;7486;51.010;10.366;2023-08-21T09:57:29;8.50;;;7.43;;
14789;SDS011;7486;51.010;10.366;2023-08-21T10:00:17;9.20;;;8.38;;
14789;SDS011;7486;51.010;10.366;2023-08-21T10:03:04;8.23;;;7.43;;
14789;SDS011;7486;51.010;10.366;2023-08-21T10:05:54;10.10;;;8.20;;
14789;SDS011;7486;51.010;10.366;2023-08-21T10:08:41;9.13;;;7.78;;
14789;SDS011;7486;51.010;10.366;2023-08-21T10:11:32;9.52;;;8.43;;
14789;SDS011;7486;51.010;10.366;2023-08-21T10:14:18;8.77;;;7.97;;
14789;SDS011;7486;51.010;10.366;2023-08-21T10:17:06;7.97;;;7.28;;
14789;SDS011;7486;51.010;10.366;2023-08-21T10:19:52;7.63;;;6.93;;
14789;SDS011;7486;51.010;10.366;2023-08-21T10:25:31;7.65;;;6.95;;
14789;SDS011;7486;51.010;10.366;2023-08-21T10:28:16;7.60;;;7.00;;
14789;SDS011;7486;51.010;10.366;2023-08-21T10:31:25;7.95;;;7.05;;
14789;SDS011;7486;51.010;10.366;2023-08-21T10:34:12;7.70;;;6.88;;
14789;SDS011;7486;51.010;10.366;2023-08-21T10:39:56;7.15;;;6.55;;
14789;SDS011;7486;51.010;10.366;2023-08-21T10:42:42;6.75;;;6.15;;
14789;SDS011;7486;51.010;10.366;2023-08-21T10:45:27;7.07;;;6.38;;
14789;SDS011;7486;51.010;10.366;2023-08-21T10:48:13;6.55;;;5.95;;
14789;SDS011;7486;51.010;10.366;2023-08-21T10:51:02;6.10;;;5.50;;
14789;SDS011;7486;51.010;10.366;2023-08-21T10:53:48;8.70;;;5.65;;
14789;SDS011;7486;51.010;10.366;2023-08-21T10:56:34;5.60;;;5.10;;
14789;SDS011;7486;51.010;10.366;2023-08-21T10:59:20;5.57;;;5.07;;
14789;SDS011;7486;51.010;10.366;2023-08-21T11:02:05;5.35;;;4.60;;
14789;SDS011;7486;51.010;10.366;2023-08-21T11:04:51;5.25;;;4.75;;
14789;SDS011;7486;51.010;10.366;2023-08-21T11:07:38;4.88;;;4.47;;
14789;SDS011;7486;51.010;10.366;2023-08-21T11:10:24;5.00;;;4.50;;
14789;SDS011;7486;51.010;10.366;2023-08-21T11:13:10;5.05;;;4.57;;
14789;SDS011;7486;51.010;10.366;2023-08-21T11:16:03;5.00;;;4.57;;
14789;SDS011;7486;51.010;10.366;2023-08-21T11:18:51;4.78;;;4.38;;
14789;SDS011;7486;51.010;10.366;2023-08-21T11:21:37;3.53;;;3.22;;
14789;SDS011;7486;51.010;10.366;2023-08-21T11:24:22;4.78;;;3.63;;
14789;SDS011;7486;51.010;10.366;2023-08-21T11:27:08;3.45;;;3.25;;
14789;SDS011;7486;51.010;10.366;2023-08-21T11:29:54;4.60;;;3.70;;
14789;SDS011;7486;51.010;10.366;2023-08-21T11:32:40;4.90;;;3.80;;
14789;SDS011;7486;51.010;10.366;2023-08-21T11:35:27;4.47;;;3.65;;
14789;SDS011;7486;51.010;10.366;2023-08-21T11:38:16;4.00;;;3.60;;
14789;SDS011;7486;51.010;10.366;2023-08-21T11:41:04;3.30;;;3.10;;
14789;SDS011;7486;51.010;10.366;2023-08-21T11:43:50;3.78;;;3.47;;
14789;SDS011;7486;51.010;10.366;2023-08-21T11:46:36;3.78;;;3.45;;
14789;SDS011;7486;51.010;10.366;2023-08-21T11:49:21;4.28;;;3.67;;
14789;SDS011;7486;51.010;10.366;2023-08-21T11:52:07;3.92;;;3.50;;
14789;SDS011;7486;51.010;10.366;2023-08-21T11:54:53;4.30;;;3.70;;
14789;SDS011;7486;51.010;10.366;2023-08-21T11:57:46;4.72;;;3.70;;
14789;SDS011;7486;51.010;10.366;2023-08-21T12:00:32;3.42;;;3.13;;
14789;SDS011;7486;51.010;10.366;2023-08-21T12:03:17;3.63;;;2.95;;
14789;SDS011;7486;51.010;10.366;2023-08-21T12:06:04;4.82;;;3.45;;
14789;SDS011;7486;51.010;10.366;2023-08-21T12:08:54;3.35;;;3.05;;
14789;SDS011;7486;51.010;10.366;2023-08-21T12:11:39;3.40;;;3.10;;
14789;SDS011;7486;51.010;10.366;2023-08-21T12:14:24;3.70;;;3.22;;
14789;SDS011;7486;51.010;10.366;2023-08-21T12:17:10;4.03;;;3.33;;
14789;SDS011;7486;51.010;10.366;2023-08-21T12:19:55;3.88;;;3.45;;
14789;SDS011;7486;51.010;10.366;2023-08-21T12:22:42;3.90;;;3.50;;
14789;SDS011;7486;51.010;10.366;2023-08-21T12:25:28;4.07;;;3.45;;
14789;SDS011;7486;51.010;10.366;2023-08-21T12:28:16;3.80;;;3.08;;
14789;SDS011;7486;51.010;10.366;2023-08-21T12:31:01;4.30;;;3.35;;
14789;SDS011;7486;51.010;10.366;2023-08-21T12:33:46;3.65;;;3.35;;
14789;SDS011;7486;51.010;10.366;2023-08-21T12:36:33;3.78;;;3.30;;
14789;SDS011;7486;51.010;10.366;2023-08-21T12:39:19;3.97;;;3.40;;
14789;SDS011;7486;51.010;10.366;2023-08-21T12:42:05;3.47;;;3.20;;
14789;SDS011;7486;51.010;10.366;2023-08-21T12:44:51;4.88;;;3.35;;
14789;SDS011;7486;51.010;10.366;2023-08-21T12:47:36;3.92;;;3.30;;
14789;SDS011;7486;51.010;10.366;2023-08-21T12:50:22;3.88;;;3.45;;
14789;SDS011;7486;51.010;10.366;2023-08-21T12:53:07;3.53;;;3.22;;
14789;SDS011;7486;51.010;10.366;2023-08-21T12:55:55;4.32;;;3.70;;
14789;SDS011;7486;51.010;10.366;2023-08-21T12:58:41;3.80;;;3.50;;
14789;SDS011;7486;51.010;10.366;2023-08-21T13:01:26;5.72;;;3.40;;
14789;SDS011;7486;51.010;10.366;2023-08-21T13:04:12;4.50;;;3.75;;
14789;SDS011;7486;51.010;10.366;2023-08-21T13:06:57;4.85;;;3.30;;
14789;SDS011;7486;51.010;10.366;2023-08-21T13:09:43;3.60;;;3.30;;
14789;SDS011;7486;51.010;10.366;2023-08-21T13:12:28;4.30;;;2.80;;
14789;SDS011;7486;51.010;10.366;2023-08-21T13:15:14;3.33;;;3.03;;
14789;SDS011;7486;51.010;10.366;2023-08-21T13:18:00;4.88;;;2.90;;
14789;SDS011;7486;51.010;10.366;2023-08-21T13:20:45;4.50;;;3.30;;
14789;SDS011;7486;51.010;10.366;2023-08-21T13:23:31;5.68;;;3.10;;
14789;SDS011;7486;51.010;10.366;2023-08-21T13:26:16;4.20;;;3.00;;
14789;SDS011;7486;51.010;10.366;2023-08-21T13:29:02;3.50;;;3.03;;
14789;SDS011;7486;51.010;10.366;2023-08-21T13:31:47;5.60;;;3.20;;
14789;SDS011;7486;51.010;10.366;2023-08-21T13:34:33;3.33;;;2.83;;
14789;SDS011;7486;51.010;10.366;2023-08-21T13:37:18;4.28;;;3.20;;
14789;SDS011;7486;51.010;10.366;2023-08-21T13:40:05;5.47;;;3.13;;
14789;SDS011;7486;51.010;10.366;2023-08-21T13:42:52;3.60;;;3.30;;
14789;SDS011;7486;51.010;10.366;2023-08-21T13:45:38;3.92;;;3.03;;
14789;SDS011;7486;51.010;10.366;2023-08-21T13:48:23;3.03;;;2.83;;
14789;SDS011;7486;51.010;10.366;2023-08-21T13:51:09;3.97;;;3.05;;
14789;SDS011;7486;51.010;10.366;2023-08-21T13:53:55;3.30;;;3.00;;
14789;SDS011;7486;51.010;10.366;2023-08-21T13:56:40;3.20;;;2.95;;
14789;SDS011;7486;51.010;10.366;2023-08-21T13:59:25;3.63;;;2.90;;
14789;SDS011;7486;51.010;10.366;2023-08-21T14:02:11;3.85;;;3.08;;
14789;SDS011;7486;51.010;10.366;2023-08-21T14:04:56;3.10;;;2.78;;
14789;SDS011;7486;51.010;10.366;2023-08-21T14:07:42;3.67;;;3.00;;
14789;SDS011;7486;51.010;10.366;2023-08-21T14:10:27;3.83;;;2.88;;
14789;SDS011;7486;51.010;10.366;2023-08-21T14:13:12;3.05;;;2.70;;
14789;SDS011;7486;51.010;10.366;2023-08-21T14:15:58;4.90;;;3.00;;
14789;SDS011;7486;51.010;10.366;2023-08-21T14:18:44;4.05;;;2.55;;
14789;SDS011;7486;51.010;10.366;2023-08-21T14:21:29;3.03;;;2.80;;
14789;SDS011;7486;51.010;10.366;2023-08-21T14:24:15;4.13;;;3.72;;
14789;SDS011;7486;51.010;10.366;2023-08-21T14:27:00;4.07;;;3.47;;
14789;SDS011;7486;51.010;10.366;2023-08-21T14:33:51;5.72;;;3.53;;
14789;SDS011;7486;51.010;10.366;2023-08-21T14:36:36;3.63;;;3.33;;
14789;SDS011;7486;51.010;10.366;2023-08-21T14:39:21;3.85;;;3.20;;
14789;SDS011;7486;51.010;10.366;2023-08-21T14:42:07;4.45;;;3.80;;
14789;SDS011;7486;51.010;10.366;2023-08-21T14:44:52;3.67;;;3.28;;
14789;SDS011;7486;51.010;10.366;2023-08-21T14:55:57;5.95;;;3.13;;
14789;SDS011;7486;51.010;10.366;2023-08-21T14:58:47;5.03;;;3.20;;
14789;SDS011;7486;51.010;10.366;2023-08-21T15:01:33;4.28;;;3.22;;
14789;SDS011;7486;51.010;10.366;2023-08-21T15:04:18;4.53;;;3.28;;
14789;SDS011;7486;51.010;10.366;2023-08-21T15:07:03;3.45;;;2.90;;
14789;SDS011;7486;51.010;10.366;2023-08-21T15:09:50;4.93;;;3.53;;
14789;SDS011;7486;51.010;10.366;2023-08-21T15:12:37;3.78;;;3.20;;
14789;SDS011;7486;51.010;10.366;2023-08-21T15:31:42;4.90;;;3.20;;
14789;SDS011;7486;51.010;10.366;2023-08-21T15:34:27;4.63;;;3.38;;
14789;SDS011;7486;51.010;10.366;2023-08-21T15:37:17;4.50;;;3.50;;
14789;SDS011;7486;51.010;10.366;2023-08-21T15:40:02;7.93;;;3.95;;
14789;SDS011;7486;51.010;10.366;2023-08-21T15:42:48;5.93;;;3.47;;
14789;SDS011;7486;51.010;10.366;2023-08-21T15:45:35;4.45;;;3.50;;
14789;SDS011;7486;51.010;10.366;2023-08-21T15:48:22;6.30;;;3.50;;
14789;SDS011;7486;51.010;10.366;2023-08-21T15:51:11;4.55;;;3.28;;
14789;SDS011;7486;51.010;10.366;2023-08-21T16:01:25;3.53;;;3.20;;
14789;SDS011;7486;51.010;10.366;2023-08-21T16:04:10;3.95;;;3.55;;
14789;SDS011;7486;51.010;10.366;2023-08-21T16:11:07;3.83;;;3.30;;
14789;SDS011;7486;51.010;10.366;2023-08-21T16:13:52;4.78;;;3.92;;
14789;SDS011;7486;51.010;10.366;2023-08-21T16:16:37;8.82;;;3.45;;
14789;SDS011;7486;51.010;10.366;2023-08-21T16:23:18;6.65;;;3.30;;
14789;SDS011;7486;51.010;10.366;2023-08-21T16:34:22;4.45;;;3.65;;
14789;SDS011;7486;51.010;10.366;2023-08-21T16:37:08;4.45;;;3.30;;
14789;SDS011;7486;51.010;10.366;2023-08-21T16:39:53;6.75;;;4.20;;
14789;SDS011;7486;51.010;10.366;2023-08-21T16:46:45;6.45;;;3.65;;
14789;SDS011;7486;51.010;10.366;2023-08-21T16:49:34;5.57;;;3.90;;
14789;SDS011;7486;51.010;10.366;2023-08-21T16:52:19;4.10;;;3.50;;
14789;SDS011;7486;51.010;10.366;2023-08-21T16:55:05;4.55;;;3.70;;
14789;SDS011;7486;51.010;10.366;2023-08-21T16:57:54;4.80;;;3.63;;
14789;SDS011;7486;51.010;10.366;2023-08-21T17:04:17;5.20;;;3.90;;
14789;SDS011;7486;51.010;10.366;2023-08-21T17:07:03;4.60;;;3.65;;
14789;SDS011;7486;51.010;10.366;2023-08-21T17:09:50;5.28;;;3.92;;
14789;SDS011;7486;51.010;10.366;2023-08-21T17:16:41;7.32;;;3.55;;
14789;SDS011;7486;51.010;10.366;2023-08-21T17:19:28;4.68;;;3.35;;
14789;SDS011;7486;51.010;10.366;2023-08-21T17:22:13;5.85;;;4.05;;
14789;SDS011;7486;51.010;10.366;2023-08-21T17:24:59;4.82;;;3.75;;
14789;SDS011;7486;51.010;10.366;2023-08-21T17:28:29;15.50;;;7.22;;
14789;SDS011;7486;51.010;10.366;2023-08-21T17:31:14;15.98;;;8.80;;
14789;SDS011;7486;51.010;10.366;2023-08-21T17:38:12;23.23;;;11.32;;
14789;SDS011;7486;51.010;10.366;2023-08-21T17:45:09;9.57;;;5.82;;
14789;SDS011;7486;51.010;10.366;2023-08-21T17:47:55;5.15;;;4.38;;
14789;SDS011;7486;51.010;10.366;2023-08-21T17:50:40;4.22;;;3.83;;
14789;SDS011;7486;51.010;10.366;2023-08-21T17:53:26;4.10;;;3.70;;
14789;SDS011;7486;51.010;10.366;2023-08-21T17:56:11;4.40;;;3.83;;
14789;SDS011;7486;51.010;10.366;2023-08-21T18:03:33;4.93;;;3.67;;
14789;SDS011;7486;51.010;10.366;2023-08-21T18:06:18;3.75;;;3.42;;